Bethany, Kentucky
Current Conditions -  °F | °C
As of 3:53 AM on Monday 20 Oct 2014 (Local Time) from KJKL Reporting Station
Clear Clear  
Wind Chill:   Ceiling: Unl
Heat Index:   Visibility: 10mi
Dew Point:   Wind: 0mph
Humidity: 86%   Direction: NA
Pressure: 30.05"   Gusts: NA
Location:  37.65°N, 83.47°W
Report Text: KJKL 200753Z AUTO 00000KT 10SM CLR 06/04 A3005 RMK AO2 SLP176 T00610039
Loading
Personal Weather Stations






























Interactive Weather Map
Tropical Storm Tracking
New forecast layout! Learn more

10-Day Weather Forecast

Advertisements
Track Severe Weather on mobile